Weather reports worldwide

Advertisment
Elgoibar, Spain (8036): temperature & dewpoint: 16.09.2018 23:00:00 - 22.09.2018 23:00:00 (CEST)Elgoibar, Spain (8036): wind speed & gusts: 16.09.2018 23:00:00 - 22.09.2018 23:00:00 (CEST)Elgoibar, Spain (8036): wind direction: 16.09.2018 23:00:00 - 22.09.2018 23:00:00 (CEST)Elgoibar, Spain (8036): reduced air pressure: 16.09.2018 23:00:00 - 22.09.2018 23:00:00 (CEST)Elgoibar, Spain (8036): precipitation: 16.09.2018 23:00:00 - 22.09.2018 23:00:00 (CEST)
Date & Time tt [°C] td [°C] ff [km/h] ff [kn] fx [km/h] fx [kn] dd ppp [hPa] rr [mm]
22.09.2018 23:00:00 18,0 15,6 0 0 0 0 N 1025,1 0,0
22.09.2018 22:00:00 18,7 15,5 0 0 5 3 N 1024,6 0,0
22.09.2018 21:00:00 19,9 15,8 1 0 6 4 E 1023,8 0,0
22.09.2018 20:00:00 22,0 15,3 1 0 10 5 E 1023,1 -
22.09.2018 19:00:00 24,6 15,0 4 2 14 7 N 1022,8 0,0
22.09.2018 18:00:00 25,4 16,0 8 5 19 11 N 1022,4 0,0
22.09.2018 17:00:00 26,1 16,6 11 6 21 12 NNW 1022,4 0,0
22.09.2018 16:00:00 26,9 16,5 9 5 21 11 N 1021,9 0,0
22.09.2018 15:00:00 29,0 15,9 0 0 10 5 N 1022,0 0,0
22.09.2018 14:00:00 27,4 16,0 4 2 11 6 SE 1022,3 -
22.09.2018 13:00:00 25,1 17,3 0 0 0 0 N 1022,5 0,0
22.09.2018 12:00:00 22,6 17,1 0 0 0 0 N 1023,0 0,0
22.09.2018 11:00:00 20,2 17,6 0 0 0 0 N 1023,5 0,0
22.09.2018 10:00:00 18,3 17,5 0 0 0 0 N 1023,4 0,0
22.09.2018 09:00:00 16,6 15,8 0 0 0 0 N 1023,0 0,0
22.09.2018 08:00:00 15,6 14,8 0 0 0 0 N 1023,2 -
22.09.2018 07:00:00 16,1 15,3 0 0 7 4 N 1022,8 0,0
22.09.2018 06:00:00 16,8 16,0 0 0 0 0 N 1022,7 0,0
22.09.2018 05:00:00 17,5 16,7 0 0 6 4 N 1023,2 0,0
22.09.2018 04:00:00 17,7 16,9 0 0 0 0 N 1023,5 0,1
22.09.2018 03:00:00 17,6 16,8 0 0 0 0 N 1023,8 0,0
22.09.2018 02:00:00 17,6 16,6 0 0 0 0 N 1024,0 -
22.09.2018 01:00:00 17,7 16,7 0 0 4 2 N 1024,0 0,1
22.09.2018 00:00:00 17,9 16,7 0 0 0 0 N 1024,4 0,4
21.09.2018 23:00:00 18,0 16,6 0 0 6 3 N 1024,1 1,1
21.09.2018 22:00:00 18,1 16,4 0 0 3 2 N 1024,3 0,1
21.09.2018 21:00:00 18,6 16,2 0 0 12 6 N 1023,4 0,0
21.09.2018 20:00:00 19,4 15,7 8 4 13 7 NNE 1023,2 -
21.09.2018 19:00:00 19,8 15,9 8 4 15 8 NNW 1022,7 0,0
21.09.2018 18:00:00 20,6 15,8 6 4 18 10 N 1022,1 0,0
21.09.2018 17:00:00 22,1 15,2 8 4 21 12 N 1021,7 0,0
21.09.2018 16:00:00 22,7 14,8 10 5 20 11 N 1021,0 0,0
21.09.2018 15:00:00 24,1 13,1 8 4 19 10 WNW 1020,6 0,0
21.09.2018 14:00:00 23,7 12,6 11 6 - - NW 1020,9 -
21.09.2018 13:00:00 23,6 15,1 0 0 0 0 N 1021,1 0,0
21.09.2018 12:00:00 21,0 17,6 0 0 0 0 N 1021,4 0,0
21.09.2018 11:00:00 18,9 18,1 0 0 0 0 N 1021,0 0,0
21.09.2018 10:00:00 17,6 16,8 0 0 0 0 N 1020,5 0,0
21.09.2018 09:00:00 15,7 14,9 0 0 0 0 N 1020,0 0,0
21.09.2018 08:00:00 15,1 14,4 0 0 0 0 N 1019,1 -
21.09.2018 07:00:00 15,5 14,7 0 0 0 0 N 1018,2 0,0
21.09.2018 06:00:00 15,7 14,9 0 0 0 0 N 1018,2 0,0
21.09.2018 05:00:00 16,1 15,3 0 0 0 0 N 1017,8 0,0
21.09.2018 04:00:00 16,3 15,3 0 0 0 0 N 1017,7 0,0
21.09.2018 03:00:00 16,8 15,7 0 0 0 0 N 1017,8 0,0
21.09.2018 02:00:00 17,1 15,8 0 0 0 0 N 1017,5 -
21.09.2018 01:00:00 17,6 16,3 0 0 0 0 N 1017,8 0,0
21.09.2018 00:00:00 18,2 16,7 0 0 5 3 N 1018,0 0,0
20.09.2018 23:00:00 18,7 16,8 0 0 5 3 WNW 1018,2 0,0
20.09.2018 22:00:00 19,1 16,9 0 0 8 4 SSE 1018,0 0,0
20.09.2018 21:00:00 19,8 16,6 1 1 12 6 ENE 1017,1 0,0
20.09.2018 20:00:00 21,0 16,6 6 3 12 7 N 1016,4 -
20.09.2018 19:00:00 22,8 17,1 7 4 21 11 N 1016,0 0,0
20.09.2018 18:00:00 23,4 17,1 11 6 22 12 N 1015,7 0,0
20.09.2018 17:00:00 24,3 17,3 13 7 26 14 N 1015,3 0,0
20.09.2018 16:00:00 24,8 17,5 12 7 22 12 N 1015,5 0,0
20.09.2018 15:00:00 25,7 17,9 8 4 19 10 N 1016,0 0,0
20.09.2018 14:00:00 25,2 17,1 8 5 16 8 N 1016,9 -
20.09.2018 13:00:00 25,8 17,7 4 2 9 5 NNE 1017,6 0,0
20.09.2018 12:00:00 24,5 17,9 0 0 0 0 N 1018,5 0,0
20.09.2018 11:00:00 22,6 17,9 0 0 0 0 N 1019,1 0,0
20.09.2018 10:00:00 20,0 19,0 0 0 0 0 N 1019,5 0,0
20.09.2018 09:00:00 18,6 17,6 0 0 0 0 N 1019,9 0,0
20.09.2018 08:00:00 18,3 17,3 0 0 0 0 N 1020,2 -
20.09.2018 07:00:00 18,4 17,4 0 0 0 0 N 1020,3 0,0
20.09.2018 06:00:00 18,5 17,5 0 0 0 0 N 1020,6 0,0
20.09.2018 05:00:00 18,7 17,7 0 0 0 0 N 1021,1 0,0
20.09.2018 04:00:00 18,7 17,5 0 0 0 0 N 1021,5 0,0
20.09.2018 03:00:00 18,9 17,5 0 0 0 0 N 1021,9 0,0
20.09.2018 02:00:00 19,0 17,3 0 0 8 4 N 1022,2 -
20.09.2018 01:00:00 19,6 17,2 5 3 8 5 NE 1022,2 0,0
20.09.2018 00:00:00 19,9 16,9 0 0 0 0 N 1022,3 0,0
19.09.2018 23:00:00 19,9 16,7 0 0 0 0 N 1022,2 0,0
19.09.2018 22:00:00 20,2 16,2 0 0 0 0 N 1021,6 0,0
19.09.2018 21:00:00 20,7 15,9 0 0 0 0 N 1021,4 0,0
19.09.2018 20:00:00 21,2 15,3 3 2 8 4 N 1021,0 -
19.09.2018 19:00:00 21,7 15,3 5 3 13 7 N 1020,9 0,0
19.09.2018 18:00:00 22,3 15,4 8 4 15 8 N 1020,6 0,0
19.09.2018 17:00:00 23,4 16,0 10 6 19 11 N 1020,4 0,0
19.09.2018 16:00:00 24,2 17,0 11 6 21 11 N 1020,1 0,0
19.09.2018 15:00:00 24,4 17,1 11 6 28 15 N 1019,9 0,0
19.09.2018 14:00:00 25,4 17,1 8 4 13 7 N 1019,6 -
19.09.2018 13:00:00 25,4 17,6 2 1 10 5 ENE 1020,0 0,0
19.09.2018 12:00:00 23,9 17,1 5 3 9 5 NE 1020,9 0,0
19.09.2018 11:00:00 22,4 17,1 0 0 0 0 N 1021,3 0,0
19.09.2018 10:00:00 19,8 18,1 0 0 0 0 N 1021,0 0,0
19.09.2018 09:00:00 16,9 16,0 0 0 4 2 N 1020,9 0,0
19.09.2018 08:00:00 16,1 15,0 0 0 0 0 N 1020,1 -
19.09.2018 07:00:00 16,6 15,3 0 0 5 3 N 1019,3 0,0
19.09.2018 06:00:00 17,5 15,9 0 0 0 0 N 1018,9 0,0
19.09.2018 05:00:00 18,5 16,8 0 0 5 3 N 1019,2 0,0
19.09.2018 04:00:00 18,5 16,6 0 0 11 6 N 1019,9 0,0
19.09.2018 03:00:00 18,7 16,8 0 0 0 0 N 1020,2 0,0
19.09.2018 02:00:00 18,8 16,8 0 0 0 0 N 1019,9 -
19.09.2018 01:00:00 19,0 17,0 0 0 0 0 N 1019,8 0,0
19.09.2018 00:00:00 19,1 16,9 0 0 0 0 N 1019,7 0,0
18.09.2018 23:00:00 19,2 16,8 0 0 0 0 N 1019,7 0,0
18.09.2018 22:00:00 19,5 16,9 0 0 0 0 N 1019,3 0,0
18.09.2018 21:00:00 20,0 16,6 0 0 8 4 N 1018,7 0,0
18.09.2018 20:00:00 20,3 16,6 5 3 11 6 NNW 1018,3 -
18.09.2018 19:00:00 20,5 16,7 5 3 14 8 N 1017,5 0,0
18.09.2018 18:00:00 20,8 17,1 8 4 20 11 N 1016,5 0,0
18.09.2018 17:00:00 21,6 16,1 11 6 23 12 N 1016,3 0,0
18.09.2018 16:00:00 22,3 16,8 11 6 21 11 NNW 1015,7 0,0
18.09.2018 15:00:00 23,1 17,3 11 6 25 13 N 1015,9 0,0
18.09.2018 14:00:00 24,2 17,2 2 1 12 6 NNW 1016,0 -
18.09.2018 13:00:00 21,6 18,0 0 0 0 0 N 1016,5 0,0
18.09.2018 12:00:00 19,1 17,2 0 0 10 5 N 1017,2 0,1
18.09.2018 11:00:00 18,4 16,7 0 0 11 6 N 1017,3 0,0
18.09.2018 10:00:00 17,5 16,2 0 0 0 0 N 1016,7 0,0
18.09.2018 09:00:00 16,8 15,5 0 0 0 0 N 1016,4 0,0
18.09.2018 08:00:00 16,2 14,9 0 0 8 4 N 1015,8 -
18.09.2018 07:00:00 16,0 14,5 0 0 0 0 N 1015,4 0,0
18.09.2018 06:00:00 16,4 14,7 0 0 0 0 N 1015,6 0,0
18.09.2018 05:00:00 16,7 14,5 0 0 0 0 N 1015,4 0,0
18.09.2018 04:00:00 17,6 15,3 0 0 6 4 N 1015,6 0,0
18.09.2018 03:00:00 18,0 15,1 0 0 0 0 N 1015,5 0,0
18.09.2018 02:00:00 - - - - - - - - -
18.09.2018 01:00:00 19,7 14,3 3 1 11 6 WSW 1014,9 0,0
18.09.2018 00:00:00 21,1 14,2 0 0 16 9 N 1014,4 0,0
17.09.2018 23:00:00 22,2 14,6 0 0 0 0 N 1014,6 0,0
17.09.2018 22:00:00 23,8 14,2 0 0 15 8 N 1014,5 0,0
17.09.2018 21:00:00 27,2 14,2 7 4 29 16 SSW 1012,5 0,0
17.09.2018 20:00:00 25,6 15,6 2 1 12 7 SW 1011,9 -
17.09.2018 19:00:00 28,8 15,3 2 1 13 7 SSE 1010,7 0,0
17.09.2018 18:00:00 31,2 15,6 4 2 17 9 SE 1010,9 0,0
17.09.2018 17:00:00 32,3 15,8 5 3 21 12 E 1011,6 0,0
17.09.2018 16:00:00 32,2 16,0 2 1 22 12 ENE 1012,3 0,0
17.09.2018 15:00:00 31,9 16,6 2 1 18 10 E 1012,8 0,0
17.09.2018 14:00:00 30,9 15,7 6 4 32 18 SW 1013,8 -
17.09.2018 13:00:00 29,5 16,0 9 5 24 13 SW 1014,3 0,0
17.09.2018 12:00:00 27,7 16,0 10 5 28 15 SW 1014,8 0,0
17.09.2018 11:00:00 24,7 16,1 10 5 31 17 SW 1015,4 0,0
17.09.2018 10:00:00 20,2 16,6 10 5 32 17 SW 1015,9 0,0
17.09.2018 09:00:00 17,5 16,7 2 1 16 9 SSW 1016,5 0,0
17.09.2018 08:00:00 17,0 16,2 0 0 0 0 N 1016,8 -
17.09.2018 07:00:00 17,3 16,3 0 0 0 0 N 1017,1 0,0
17.09.2018 06:00:00 17,6 16,6 0 0 0 0 N 1017,5 0,0
17.09.2018 05:00:00 17,4 16,2 0 0 0 0 N 1018,0 0,0
17.09.2018 04:00:00 17,8 16,6 0 0 0 0 N 1018,6 0,0
17.09.2018 03:00:00 18,1 17,0 0 0 0 0 N 1019,4 0,0
17.09.2018 02:00:00 18,1 17,0 0 0 0 0 N 1019,9 -
17.09.2018 01:00:00 18,2 16,9 0 0 0 0 N 1020,4 0,0
17.09.2018 00:00:00 18,3 16,8 0 0 0 0 N 1021,1 0,0
16.09.2018 23:00:00 18,6 16,6 0 0 0 0 N 1021,4 0,0

tt = temperature
td = dewpoint
ff = wind speed
fx = gusts
dd = wind direction
ppp = reduced air pressure
rr = precipitation

Next stations